Alcova, WY (82620)

4:11 PM MDT on August 27, 2014 (GMT -0600)
Natrona County International | Change Station
CLOSE
Current Station
Airport
Location: Casper,
Elevation: 5289 ft
Nearby Weather Stations

Elev 5289 ft 42.90 °N, 106.47 °W | Updated 18 minutes ago

Overcast
Overcast
65 °F
Feels Like 65 °F
N
5
Wind Variable Wind from East

Today
High -- | Low -- °F
--% Chance of Precip.
Yesterday
High -- | Low -- °F
Precip. -- in
6:27 AM 7:49 PM
Waxing Crescent, 5% visible
Pressure 30.01 in
Visibility 10.0 miles
Clouds Scattered Clouds 2100 ft
Mostly Cloudy 8000 ft
Overcast 9500 ft
Dew Point 54 °F
Humidity 68%
Rainfall 0.13 in
Snow Depth Not available.
UV 2 out of 12
Pollen 7.90 out of 12
Air Quality Not available.
Flu Activity Not available.
METAR KCPR 272153Z 10004KT 10SM SCT021 BKN080 OVC095 18/12 A3015 RMK AO2 SLP161 T01830122

More Conditions Fewer Conditions

Pressure 30.01 in
Visibility 10.0 miles
Clouds Scattered Clouds 2100 ft
Mostly Cloudy 8000 ft
Overcast 9500 ft
Dew Point 54 °F
Humidity 68%
Rainfall 0.13 in
Snow Depth Not available.
UV 2 out of 12
Pollen 7.90 out of 12
Air Quality Not available.
Flu Activity Not available.
METAR KCPR 272153Z 10004KT 10SM SCT021 BKN080 OVC095 18/12 A3015 RMK AO2 SLP161 T01830122

More Conditions Fewer Conditions

10-Day Weather Forecast

Almanac

Astronomy

Aug. 27, 2014 Rise Set
Actual Time 6:27 AM MDT 7:49 PM MDT
Civil Twilight 5:58 AM MDT 8:19 PM MDT
Nautical Twilight 5:22 AM MDT 8:54 PM MDT
Astronomical Twilight 4:45 AM MDT 9:31 PM MDT
Moon 8:29 AM MDT 8:39 PM MDT
Length of Visible Light 14h 21m
Length of Day
13h 22m
Tomorrow will be 2m 43s shorter.
Waxing Crescent, 5% of the Moon is Illuminated
Today
Waxing Crescent
Sep 2
First Quarter
Sep 8
Full
Sep 15
Last Quarter
Sep 24
New

Today's Extremes

State Highs State Lows

Community

WunderPhotos

Upload Photos

1,747,798 photos uploaded!

Nearby

Snow Depth

Station Depth Elevation
Casper Mountain 1 in 7850 ft
Reno Hill 0 in 8500 ft
Grave Springs 1 in 8550 ft
Sand Lake 0 in 10050 ft
Middle Powder 0 in 7760 ft

Earthquake Activity

City Distance Mag. Time & Date
No recent earthquake activity has been reported nearby.
Minimum magnitude displayed is 2.5.

Coastal Water Temperatures

Place Temperature
No Stations Reporting

Nearby Weather Stations